createdAt,value
2023-02-20T00:01:03.662Z,7.72
2023-02-20T00:03:36.657Z,5.38
2023-02-20T00:06:09.396Z,4.90
2023-02-20T00:08:42.354Z,4.38
2023-02-20T00:11:14.975Z,6.47
2023-02-20T00:13:48.644Z,7.93
2023-02-20T00:16:21.212Z,5.50
2023-02-20T00:18:55.534Z,8.77
2023-02-20T00:21:32.318Z,4.70
2023-02-20T00:24:05.493Z,5.55
2023-02-20T00:26:38.104Z,15.18
2023-02-20T00:29:11.030Z,2.78
2023-02-20T00:31:43.734Z,8.02
2023-02-20T00:34:16.855Z,6.07
2023-02-20T00:36:50.381Z,11.57
2023-02-20T00:39:24.606Z,10.35
2023-02-20T00:42:01.965Z,6.80
2023-02-20T00:44:35.155Z,17.48
2023-02-20T00:47:08.072Z,11.27
2023-02-20T00:49:41.143Z,3.65
2023-02-20T00:52:15.245Z,4.32
2023-02-20T00:54:48.221Z,3.92
2023-02-20T00:57:20.853Z,3.85
2023-02-20T00:59:56.113Z,6.32
2023-02-20T01:02:32.309Z,3.17
2023-02-20T01:05:06.050Z,4.15
2023-02-20T01:07:38.713Z,8.13
2023-02-20T01:10:13.826Z,4.45
2023-02-20T01:12:46.461Z,3.33
2023-02-20T01:15:19.888Z,9.75
2023-02-20T01:17:52.466Z,3.63
2023-02-20T01:20:32.732Z,3.92
2023-02-20T01:23:05.372Z,3.97
2023-02-20T01:25:41.519Z,3.67
2023-02-20T01:28:15.428Z,2.67
2023-02-20T01:30:48.249Z,3.20
2023-02-20T01:33:24.611Z,5.63
2023-02-20T01:35:57.784Z,3.53
2023-02-20T01:38:30.426Z,3.67
2023-02-20T01:41:03.433Z,6.18
2023-02-20T01:43:37.852Z,4.13
2023-02-20T01:46:29.258Z,19.80
2023-02-20T01:49:12.687Z,5.72
2023-02-20T01:51:53.921Z,3.55
2023-02-20T01:54:27.888Z,4.93
2023-02-20T01:57:07.591Z,6.30
2023-02-20T01:59:41.728Z,5.35
2023-02-20T02:02:14.701Z,2.78
2023-02-20T02:04:51.617Z,6.68
2023-02-20T02:07:29.823Z,4.63
2023-02-20T02:10:14.579Z,2.83
2023-02-20T02:12:53.205Z,3.45
2023-02-20T02:15:25.981Z,5.05
2023-02-20T02:18:01.668Z,5.32
2023-02-20T02:20:44.948Z,2.85
2023-02-20T02:23:26.696Z,2.67
2023-02-20T02:26:14.991Z,2.30
2023-02-20T02:28:51.250Z,10.18
2023-02-20T02:31:48.248Z,2.60
2023-02-20T02:34:21.581Z,2.47
2023-02-20T02:37:02.556Z,6.65
2023-02-20T02:39:43.584Z,1.60
2023-02-20T02:42:24.557Z,3.97
2023-02-20T02:45:05.192Z,5.72
2023-02-20T02:47:57.162Z,4.70
2023-02-20T02:50:37.076Z,3.22
2023-02-20T02:53:10.499Z,4.60
2023-02-20T02:55:43.510Z,4.85
2023-02-20T02:58:17.231Z,2.45
2023-02-20T03:01:00.434Z,1.77
2023-02-20T03:03:39.354Z,2.08
2023-02-20T03:06:16.057Z,2.25
2023-02-20T03:09:00.117Z,5.05
2023-02-20T03:11:36.153Z,1.90
2023-02-20T03:14:33.835Z,3.92
2023-02-20T03:17:11.951Z,1.83
2023-02-20T03:19:46.717Z,3.72
2023-02-20T03:22:23.754Z,6.40
2023-02-20T03:25:06.522Z,7.95
2023-02-20T03:27:51.268Z,5.25
2023-02-20T03:30:37.622Z,3.65
2023-02-20T03:33:35.613Z,7.65
2023-02-20T03:36:29.399Z,6.90
2023-02-20T03:39:22.772Z,8.75
2023-02-20T03:42:16.101Z,22.30
2023-02-20T03:44:53.580Z,3.90
2023-02-20T03:47:27.607Z,2.75
2023-02-20T03:50:02.227Z,2.85
2023-02-20T03:52:37.088Z,4.60
2023-02-20T03:55:12.881Z,3.83
2023-02-20T03:57:48.906Z,5.00
2023-02-20T04:00:32.000Z,2.80
2023-02-20T04:03:08.322Z,1.85
2023-02-20T04:05:47.752Z,1.27
2023-02-20T04:08:27.208Z,3.67
2023-02-20T04:11:06.836Z,2.88
2023-02-20T04:13:41.590Z,2.17
2023-02-20T04:16:14.986Z,3.75
2023-02-20T04:18:47.978Z,1.95
2023-02-20T04:21:35.887Z,0.82
2023-02-20T04:24:13.435Z,2.47
2023-02-20T04:26:47.137Z,5.80
2023-02-20T04:29:19.915Z,4.75
2023-02-20T04:31:52.892Z,3.20
2023-02-20T04:34:25.899Z,7.50
2023-02-20T04:37:08.401Z,6.80
2023-02-20T04:39:41.429Z,6.90
2023-02-20T04:42:15.765Z,4.05
2023-02-20T04:44:48.742Z,6.72
2023-02-20T04:47:21.670Z,6.15
2023-02-20T04:49:54.267Z,1.83
2023-02-20T04:52:29.102Z,2.40
2023-02-20T04:55:01.750Z,2.20
2023-02-20T04:57:35.519Z,5.97
2023-02-20T05:00:11.229Z,4.97
2023-02-20T05:02:44.734Z,3.65
2023-02-20T05:05:19.537Z,4.47
2023-02-20T05:07:56.313Z,10.65
2023-02-20T05:10:29.356Z,5.05
2023-02-20T05:13:02.362Z,3.08
2023-02-20T05:15:35.110Z,6.03
2023-02-20T05:18:08.264Z,4.30
2023-02-20T05:20:59.754Z,6.55
2023-02-20T05:23:32.658Z,4.35
2023-02-20T05:26:09.308Z,10.10
2023-02-20T05:28:42.149Z,2.15
2023-02-20T05:31:17.528Z,5.78
2023-02-20T05:33:50.931Z,3.47
2023-02-20T05:36:23.463Z,3.67
2023-02-20T05:38:56.319Z,8.38
2023-02-20T05:41:28.840Z,5.13
2023-02-20T05:44:01.982Z,7.57
2023-02-20T05:46:39.144Z,6.50
2023-02-20T05:49:12.389Z,9.55
2023-02-20T05:51:44.894Z,7.00
2023-02-20T05:54:18.240Z,5.40
2023-02-20T05:56:50.782Z,5.38
2023-02-20T05:59:24.041Z,3.97
2023-02-20T06:01:57.041Z,7.40
2023-02-20T06:04:30.317Z,5.38
2023-02-20T06:07:02.945Z,9.98
2023-02-20T06:09:35.859Z,7.45
2023-02-20T06:12:08.352Z,4.88
2023-02-20T06:14:41.314Z,3.80
2023-02-20T06:17:13.781Z,14.23
2023-02-20T06:19:46.699Z,4.55
2023-02-20T06:22:19.252Z,7.30
2023-02-20T06:24:52.562Z,3.00
2023-02-20T06:27:25.240Z,9.77
2023-02-20T06:29:58.161Z,8.52
2023-02-20T06:32:30.723Z,4.68
2023-02-20T06:35:03.851Z,4.35
2023-02-20T06:37:36.347Z,5.65
2023-02-20T06:40:09.626Z,6.20
2023-02-20T06:42:42.143Z,9.30
2023-02-20T06:45:15.574Z,10.40
2023-02-20T06:47:48.171Z,5.60
2023-02-20T06:50:21.065Z,8.10
2023-02-20T06:52:53.641Z,6.40
2023-02-20T06:55:26.836Z,9.70
2023-02-20T06:57:59.813Z,7.13
2023-02-20T07:00:32.710Z,11.60
2023-02-20T07:03:05.265Z,7.43
2023-02-20T07:05:38.442Z,7.68
2023-02-20T07:08:11.118Z,6.30
2023-02-20T07:10:44.529Z,10.20
2023-02-20T07:13:17.000Z,12.88
2023-02-20T07:15:50.123Z,11.25
2023-02-20T07:18:24.325Z,12.00
2023-02-20T07:20:57.435Z,15.05
2023-02-20T07:23:29.984Z,10.07
2023-02-20T07:26:02.920Z,7.82
2023-02-20T07:28:36.660Z,19.25
2023-02-20T07:31:09.638Z,12.85
2023-02-20T07:33:43.847Z,9.60
2023-02-20T07:36:16.799Z,12.73
2023-02-20T07:38:56.150Z,10.35
2023-02-20T07:41:31.892Z,7.40
2023-02-20T07:44:05.133Z,13.52
2023-02-20T07:46:38.501Z,7.80
2023-02-20T07:49:11.880Z,6.97
2023-02-20T07:51:44.705Z,29.40
2023-02-20T07:54:17.378Z,16.75
2023-02-20T07:56:50.304Z,10.00
2023-02-20T07:59:23.482Z,8.85
2023-02-20T08:01:56.330Z,9.02
2023-02-20T08:04:29.053Z,15.27
2023-02-20T08:07:01.886Z,7.60
2023-02-20T08:09:34.392Z,13.73
2023-02-20T08:12:07.488Z,8.43
2023-02-20T08:14:40.213Z,5.13
2023-02-20T08:17:13.204Z,4.82
2023-02-20T08:19:45.770Z,9.88
2023-02-20T08:22:19.019Z,9.45
2023-02-20T08:24:51.618Z,7.07
2023-02-20T08:27:24.538Z,7.38
2023-02-20T08:29:57.129Z,6.72
2023-02-20T08:32:30.123Z,9.82
2023-02-20T08:35:03.048Z,11.25
2023-02-20T08:37:35.961Z,4.95
2023-02-20T08:40:09.139Z,6.03
2023-02-20T08:42:42.248Z,4.43
2023-02-20T08:45:15.005Z,4.18
2023-02-20T08:47:48.987Z,6.28
2023-02-20T08:50:21.669Z,6.25
2023-02-20T08:52:54.637Z,6.53
2023-02-20T08:55:27.235Z,5.75
2023-02-20T08:58:00.255Z,7.82
2023-02-20T09:00:34.395Z,7.05
2023-02-20T09:03:08.742Z,3.55
2023-02-20T09:05:42.249Z,2.53
2023-02-20T09:08:15.268Z,5.82
2023-02-20T09:10:48.062Z,7.80
2023-02-20T09:13:21.889Z,4.22
2023-02-20T09:15:54.418Z,12.68
2023-02-20T09:18:27.442Z,17.92
2023-02-20T09:21:00.163Z,12.77
2023-02-20T09:23:33.386Z,15.45
2023-02-20T09:26:06.348Z,11.63
2023-02-20T09:28:40.593Z,10.40
2023-02-20T09:31:13.525Z,12.02
2023-02-20T09:33:51.072Z,6.50
2023-02-20T09:36:24.048Z,8.43
2023-02-20T09:38:56.977Z,5.63
2023-02-20T09:41:36.197Z,4.97
2023-02-20T09:44:14.245Z,5.10
2023-02-20T09:46:47.919Z,4.68
2023-02-20T09:49:30.037Z,5.47
2023-02-20T09:52:05.363Z,3.35
2023-02-20T09:54:45.349Z,6.47
2023-02-20T09:57:21.351Z,6.78
2023-02-20T09:59:56.118Z,6.82
2023-02-20T10:02:33.161Z,2.88
2023-02-20T10:07:27.274Z,2.85
2023-02-20T10:10:00.912Z,9.15
2023-02-20T10:12:41.971Z,5.57
2023-02-20T10:15:21.104Z,8.05
2023-02-20T10:17:58.013Z,6.82
2023-02-20T10:20:33.749Z,2.42
2023-02-20T10:23:06.342Z,5.90
2023-02-20T10:25:41.334Z,8.57
2023-02-20T10:28:18.626Z,3.95
2023-02-20T10:31:10.021Z,6.10
2023-02-20T10:33:54.716Z,6.97
2023-02-20T10:36:37.457Z,2.70
2023-02-20T10:39:11.824Z,16.08
2023-02-20T10:41:55.059Z,14.57
2023-02-20T10:44:30.962Z,13.88
2023-02-20T10:47:32.770Z,7.93
2023-02-20T10:50:10.291Z,9.32
2023-02-20T10:52:56.448Z,6.85
2023-02-20T10:55:34.578Z,11.30
2023-02-20T10:58:22.952Z,5.90
2023-02-20T11:00:57.432Z,5.50
2023-02-20T11:03:36.735Z,9.18
2023-02-20T11:06:12.681Z,3.80
2023-02-20T11:08:46.054Z,10.57
2023-02-20T11:11:21.750Z,13.30
2023-02-20T11:13:54.712Z,7.15
2023-02-20T11:16:36.381Z,5.95
2023-02-20T11:19:21.195Z,6.68
2023-02-20T11:21:53.831Z,5.28
2023-02-20T11:24:28.927Z,12.07
2023-02-20T11:27:04.542Z,9.00
2023-02-20T11:29:40.945Z,5.25
2023-02-20T11:32:22.731Z,17.42
2023-02-20T11:35:14.560Z,5.72
2023-02-20T11:37:54.756Z,9.30
2023-02-20T11:40:29.518Z,8.65
2023-02-20T11:43:14.249Z,12.65
2023-02-20T11:45:47.329Z,6.57
2023-02-20T11:48:20.965Z,7.75
2023-02-20T11:50:54.558Z,8.85
2023-02-20T11:53:33.702Z,7.43
2023-02-20T11:56:09.517Z,5.47
2023-02-20T11:58:42.610Z,5.65
2023-02-20T12:01:35.859Z,4.13
2023-02-20T12:04:19.384Z,5.60
2023-02-20T12:06:52.498Z,4.13
2023-02-20T12:09:26.744Z,9.23
2023-02-20T12:11:59.583Z,5.57
2023-02-20T12:14:32.200Z,4.55
2023-02-20T12:17:22.388Z,6.93
2023-02-20T12:20:14.790Z,8.07
2023-02-20T12:23:14.041Z,3.80
2023-02-20T12:25:57.346Z,3.00
2023-02-20T12:28:33.718Z,10.75
2023-02-20T12:31:25.365Z,11.57
2023-02-20T12:36:41.573Z,12.63
2023-02-20T12:39:30.127Z,8.00
2023-02-20T12:42:08.911Z,4.40
2023-02-20T12:44:50.402Z,4.28
2023-02-20T12:47:36.694Z,8.45
2023-02-20T12:50:21.920Z,9.23
2023-02-20T12:52:54.562Z,12.10
2023-02-20T12:55:40.467Z,5.07
2023-02-20T12:58:32.469Z,5.72
2023-02-20T13:01:11.358Z,7.97
2023-02-20T13:04:05.695Z,7.03
2023-02-20T13:06:47.486Z,6.53
2023-02-20T13:09:32.924Z,5.15
2023-02-20T13:12:16.759Z,5.30
2023-02-20T13:14:56.695Z,5.35
2023-02-20T13:17:32.315Z,4.28
2023-02-20T13:20:13.988Z,3.95
2023-02-20T13:23:05.627Z,4.80
2023-02-20T13:25:42.039Z,3.90
2023-02-20T13:28:21.271Z,3.53
2023-02-20T13:31:08.876Z,4.10
2023-02-20T13:33:43.938Z,5.20
2023-02-20T13:36:19.428Z,4.47
2023-02-20T13:39:10.895Z,2.67
2023-02-20T13:41:56.157Z,6.85
2023-02-20T13:44:30.007Z,2.67
2023-02-20T13:47:03.622Z,9.50
2023-02-20T13:49:51.990Z,3.03
2023-02-20T13:52:30.634Z,2.63
2023-02-20T13:55:13.522Z,4.85
2023-02-20T13:57:47.426Z,3.13
2023-02-20T14:00:20.621Z,8.60
2023-02-20T14:02:53.346Z,5.45
2023-02-20T14:05:31.914Z,4.03
2023-02-20T14:08:04.447Z,7.97
2023-02-20T14:10:38.675Z,8.40
2023-02-20T14:13:16.024Z,25.10
2023-02-20T14:15:59.160Z,26.27
2023-02-20T14:18:33.152Z,7.47
2023-02-20T14:21:06.313Z,6.40
2023-02-20T14:23:39.170Z,3.25
2023-02-20T14:26:23.768Z,4.18
2023-02-20T14:28:57.663Z,4.75
2023-02-20T14:31:35.264Z,4.25
2023-02-20T14:34:09.231Z,9.52
2023-02-20T14:36:54.043Z,7.00
2023-02-20T14:39:32.313Z,2.22
2023-02-20T14:42:07.061Z,5.70
2023-02-20T14:44:39.708Z,2.53
2023-02-20T14:47:14.334Z,4.88
2023-02-20T14:49:46.923Z,2.80
2023-02-20T14:52:21.721Z,2.70
2023-02-20T14:55:02.683Z,2.15
2023-02-20T14:57:36.010Z,3.28
2023-02-20T15:00:10.792Z,3.83
2023-02-20T15:02:45.840Z,4.95
2023-02-20T15:05:29.822Z,6.13
2023-02-20T15:08:17.893Z,3.58
2023-02-20T15:10:54.567Z,5.03
2023-02-20T15:13:31.429Z,3.15
2023-02-20T15:16:06.973Z,3.63
2023-02-20T15:18:43.963Z,2.22
2023-02-20T15:21:30.810Z,1.60
2023-02-20T15:24:22.231Z,4.28
2023-02-20T15:26:54.850Z,4.57
2023-02-20T15:29:28.826Z,3.97
2023-02-20T15:32:03.074Z,3.45
2023-02-20T15:34:37.280Z,3.20
2023-02-20T15:37:38.580Z,2.15
2023-02-20T15:40:24.693Z,3.90
2023-02-20T15:42:57.979Z,2.22
2023-02-20T15:45:31.477Z,3.55
2023-02-20T15:48:04.154Z,7.05
2023-02-20T15:50:37.052Z,6.82
2023-02-20T15:53:12.409Z,10.30
2023-02-20T15:55:46.311Z,6.30
2023-02-20T15:58:28.123Z,7.82
2023-02-20T16:01:03.166Z,15.88
2023-02-20T16:03:50.570Z,19.13
2023-02-20T16:06:24.319Z,19.73
2023-02-20T16:08:57.249Z,11.15
2023-02-20T16:11:39.389Z,5.60
2023-02-20T16:14:14.194Z,8.13
2023-02-20T16:16:48.695Z,7.28
2023-02-20T16:19:30.618Z,14.82
2023-02-20T16:22:10.176Z,10.98
2023-02-20T16:24:44.901Z,7.90
2023-02-20T16:27:28.172Z,12.35
2023-02-20T16:30:00.702Z,12.45
2023-02-20T16:32:33.730Z,19.75
2023-02-20T16:35:06.511Z,22.48
2023-02-20T16:37:39.508Z,19.10
2023-02-20T16:40:12.895Z,10.63
2023-02-20T16:42:46.680Z,17.67
2023-02-20T16:45:20.394Z,21.02
2023-02-20T16:47:54.495Z,20.83
2023-02-20T16:50:31.073Z,23.02
2023-02-20T16:53:05.845Z,22.05
2023-02-20T16:55:39.618Z,25.80
2023-02-20T16:58:12.568Z,25.02
2023-02-20T17:00:56.678Z,32.05
2023-02-20T17:03:32.483Z,35.40
2023-02-20T17:06:05.111Z,28.48
2023-02-20T17:08:37.983Z,33.72
2023-02-20T17:11:10.558Z,37.88
2023-02-20T17:13:43.457Z,32.92
2023-02-20T17:16:22.364Z,26.23
2023-02-20T17:19:03.416Z,31.13
2023-02-20T17:21:35.985Z,33.50
2023-02-20T17:24:09.000Z,36.08
2023-02-20T17:26:41.520Z,34.00
2023-02-20T17:29:14.481Z,29.38
2023-02-20T17:31:47.092Z,38.25
2023-02-20T17:34:20.222Z,29.13
2023-02-20T17:36:53.129Z,29.67
2023-02-20T17:39:26.501Z,15.70
2023-02-20T17:41:59.000Z,40.53
2023-02-20T17:44:32.216Z,24.63
2023-02-20T17:47:05.052Z,39.35
2023-02-20T17:49:40.161Z,39.38
2023-02-20T17:52:13.824Z,32.13
2023-02-20T17:54:47.912Z,29.48
2023-02-20T17:57:20.579Z,27.77
2023-02-20T17:59:53.484Z,19.08
2023-02-20T18:02:26.183Z,27.95
2023-02-20T18:04:59.223Z,29.45
2023-02-20T18:07:32.069Z,24.90
2023-02-20T18:10:05.397Z,6.47
2023-02-20T18:12:37.957Z,24.25
2023-02-20T18:15:11.437Z,30.42
2023-02-20T18:17:43.988Z,26.52
2023-02-20T18:20:17.141Z,38.00
2023-02-20T18:22:50.210Z,25.13
2023-02-20T18:25:34.465Z,32.78
2023-02-20T18:28:12.414Z,36.97
2023-02-20T18:30:46.044Z,19.08
2023-02-20T18:33:18.707Z,15.68
2023-02-20T18:36:06.189Z,28.13
2023-02-20T18:38:40.060Z,18.95
2023-02-20T18:41:13.408Z,13.68
2023-02-20T18:43:46.446Z,9.55
2023-02-20T18:46:30.084Z,15.48
2023-02-20T18:49:03.257Z,11.95
2023-02-20T18:51:38.003Z,33.35
2023-02-20T18:54:22.731Z,13.50
2023-02-20T18:56:56.406Z,17.08
2023-02-20T18:59:29.144Z,17.83
2023-02-20T19:02:06.414Z,28.83
2023-02-20T19:04:38.992Z,15.05
2023-02-20T19:07:11.924Z,10.43
2023-02-20T19:09:44.409Z,14.40
2023-02-20T19:12:17.267Z,13.55
2023-02-20T19:14:49.904Z,12.70
2023-02-20T19:17:22.914Z,11.93
2023-02-20T19:19:55.479Z,17.08
2023-02-20T19:22:28.813Z,13.65
2023-02-20T19:25:04.116Z,5.13
2023-02-20T19:27:37.095Z,10.80
2023-02-20T19:30:10.493Z,7.60
2023-02-20T19:32:43.492Z,6.75
2023-02-20T19:35:16.658Z,4.10
2023-02-20T19:37:50.188Z,9.60
2023-02-20T19:40:22.744Z,19.77
2023-02-20T19:42:55.998Z,12.85
2023-02-20T19:45:28.720Z,11.68
2023-02-20T19:48:01.656Z,9.90
2023-02-20T19:50:35.888Z,8.95
2023-02-20T19:53:08.984Z,8.80
2023-02-20T19:55:41.709Z,3.75
2023-02-20T19:58:14.590Z,4.22
2023-02-20T20:00:47.058Z,6.72
2023-02-20T20:03:20.042Z,13.68
2023-02-20T20:05:53.202Z,31.88
2023-02-20T20:08:26.206Z,26.23
2023-02-20T20:10:59.633Z,29.27
2023-02-20T20:13:32.819Z,16.88
2023-02-20T20:16:05.523Z,9.02
2023-02-20T20:18:38.482Z,8.75
2023-02-20T20:21:11.060Z,9.93
2023-02-20T20:23:43.956Z,6.03
2023-02-20T20:26:16.510Z,7.68
2023-02-20T20:28:49.346Z,9.32
2023-02-20T20:31:22.679Z,10.30
2023-02-20T20:33:55.866Z,5.15
2023-02-20T20:36:28.483Z,4.40
2023-02-20T20:39:01.310Z,5.13
2023-02-20T20:41:44.356Z,4.35
2023-02-20T20:44:20.485Z,12.15
2023-02-20T20:46:53.328Z,7.22
2023-02-20T20:49:26.357Z,4.43
2023-02-20T20:51:58.879Z,19.35
2023-02-20T20:54:31.876Z,5.55
2023-02-20T20:57:04.417Z,8.10
2023-02-20T20:59:37.922Z,15.20
2023-02-20T21:02:10.542Z,9.43
2023-02-20T21:04:44.959Z,9.52
2023-02-20T21:07:17.914Z,11.75
2023-02-20T21:09:51.138Z,10.57
2023-02-20T21:12:23.578Z,20.92
2023-02-20T21:14:56.496Z,2.42
2023-02-20T21:17:29.191Z,30.30
2023-02-20T21:20:06.630Z,2.80
2023-02-20T21:22:39.260Z,5.65
2023-02-20T21:25:12.571Z,12.10
2023-02-20T21:27:45.112Z,5.50
2023-02-20T21:30:18.386Z,6.22
2023-02-20T21:32:51.093Z,3.10
2023-02-20T21:35:24.161Z,2.97
2023-02-20T21:37:56.752Z,2.83
2023-02-20T21:40:29.749Z,5.88
2023-02-20T21:43:22.854Z,2.10
2023-02-20T21:45:55.780Z,4.75
2023-02-20T21:48:28.728Z,5.82
2023-02-20T21:51:01.577Z,2.85
2023-02-20T21:53:34.261Z,3.72
2023-02-20T21:56:07.362Z,3.10
2023-02-20T21:58:58.568Z,3.08
2023-02-20T22:01:40.007Z,3.47
2023-02-20T22:04:13.509Z,4.60
2023-02-20T22:06:49.102Z,3.63
2023-02-20T22:09:41.276Z,6.03
2023-02-20T22:12:34.350Z,5.93
2023-02-20T22:15:26.823Z,4.22
2023-02-20T22:18:17.981Z,6.35
2023-02-20T22:21:09.248Z,4.65
2023-02-20T22:24:00.474Z,4.97
2023-02-20T22:26:51.545Z,8.27
2023-02-20T22:29:42.677Z,5.72
2023-02-20T22:32:33.833Z,6.00
2023-02-20T22:35:26.105Z,6.72
2023-02-20T22:38:17.879Z,11.48
2023-02-20T22:44:00.272Z,4.03
2023-02-20T22:46:51.449Z,20.75
2023-02-20T22:49:42.680Z,7.97
2023-02-20T22:52:33.905Z,7.22
2023-02-20T22:55:25.834Z,7.15
2023-02-20T22:58:16.985Z,4.10
2023-02-20T23:01:08.181Z,5.40
2023-02-20T23:04:00.145Z,3.17
2023-02-20T23:06:51.319Z,7.97
2023-02-20T23:09:42.478Z,7.60
2023-02-20T23:12:33.645Z,7.82
2023-02-20T23:15:25.542Z,3.47
2023-02-20T23:18:16.729Z,8.40
2023-02-20T23:21:07.940Z,18.15
2023-02-20T23:23:59.117Z,5.38
2023-02-20T23:26:50.479Z,9.73
2023-02-20T23:29:41.273Z,5.55
2023-02-20T23:32:32.544Z,6.00
2023-02-20T23:35:30.907Z,3.95
2023-02-20T23:38:22.775Z,4.28
2023-02-20T23:41:14.056Z,10.30
2023-02-20T23:44:05.842Z,3.97
2023-02-20T23:47:02.119Z,12.05
2023-02-20T23:49:54.031Z,12.27
2023-02-20T23:52:45.225Z,15.50
2023-02-20T23:55:38.070Z,12.35
2023-02-20T23:58:29.136Z,13.95
